Time,TemperatureF,DewpointF,PressureIn,WindDirection,WindDirectionDegrees,WindSpeedMPH,WindSpeedGustMPH,Humidity,HourlyPrecipIn,Conditions,Clouds,dailyrainin,SolarRadiationWatts/m^2,SoftwareType,DateUTC
2013-05-28 00:11:00,49.0,48.0,-100.00,ENE,63,0.0,2.0,95,0.02,,,0.02,0.000000,,2013-05-28 07:11:00,
2013-05-28 00:21:00,49.0,48.0,-100.00,ENE,63,0.0,2.0,95,0.02,,,0.02,0.000000,,2013-05-28 07:21:00,
2013-05-28 00:32:00,49.0,48.0,-100.00,ENE,63,0.0,2.0,95,0.02,,,0.02,0.000000,,2013-05-28 07:32:00,
2013-05-28 00:42:00,49.0,48.0,-100.00,ENE,63,0.0,2.0,95,0.02,,,0.02,0.000000,,2013-05-28 07:42:00,
2013-05-28 01:11:00,49.0,48.0,-100.00,ENE,62,0.0,0.0,96,0.00,,,0.02,0.000000,,2013-05-28 08:11:00,
2013-05-28 01:21:00,49.0,48.0,-100.00,ENE,62,0.0,0.0,96,0.00,,,0.02,0.000000,,2013-05-28 08:21:00,
2013-05-28 01:32:00,49.0,48.0,-100.00,ENE,62,0.0,0.0,96,0.00,,,0.02,0.000000,,2013-05-28 08:32:00,
2013-05-28 01:42:00,49.0,48.0,-100.00,ENE,62,0.0,0.0,96,0.00,,,0.02,0.000000,,2013-05-28 08:42:00,
2013-05-28 01:51:00,49.0,48.0,-100.00,ENE,62,0.0,0.0,96,0.00,,,0.02,0.000000,,2013-05-28 08:51:00,
2013-05-28 01:52:00,49.0,48.0,-100.00,NW,318,0.0,1.0,96,0.00,,,0.02,0.000000,,2013-05-28 08:52:00,
2013-05-28 02:11:00,49.0,48.0,-100.00,NW,318,0.0,1.0,96,0.00,,,0.02,0.000000,,2013-05-28 09:11:00,
2013-05-28 02:21:00,49.0,48.0,-100.00,NW,318,0.0,1.0,96,0.00,,,0.02,0.000000,,2013-05-28 09:21:00,
2013-05-28 02:33:00,49.0,48.0,-100.00,NW,318,0.0,1.0,96,0.00,,,0.02,0.000000,,2013-05-28 09:33:00,
2013-05-28 02:42:00,49.0,48.0,-100.00,NW,318,0.0,1.0,96,0.00,,,0.02,0.000000,,2013-05-28 09:42:00,
2013-05-28 02:52:00,48.0,47.0,-100.00,North,3,0.0,1.0,97,0.00,,,0.02,0.000000,,2013-05-28 09:52:00,
2013-05-28 03:12:00,48.0,47.0,-100.00,North,3,0.0,1.0,97,0.00,,,0.02,0.000000,,2013-05-28 10:12:00,
2013-05-28 03:22:00,48.0,47.0,-100.00,North,3,0.0,1.0,97,0.00,,,0.02,0.000000,,2013-05-28 10:22:00,
2013-05-28 03:32:00,48.0,47.0,-100.00,North,3,0.0,1.0,97,0.00,,,0.02,0.000000,,2013-05-28 10:32:00,
2013-05-28 03:42:00,48.0,47.0,-100.00,North,3,0.0,1.0,97,0.00,,,0.02,0.000000,,2013-05-28 10:42:00,
2013-05-28 03:52:00,48.0,47.0,-100.00,NNW,332,0.0,0.0,97,0.00,,,0.02,0.000000,,2013-05-28 10:52:00,
2013-05-28 04:11:00,48.0,47.0,-100.00,NNW,332,0.0,0.0,97,0.00,,,0.02,0.000000,,2013-05-28 11:11:00,
2013-05-28 04:22:00,48.0,47.0,-100.00,NNW,332,0.0,0.0,97,0.00,,,0.02,0.000000,,2013-05-28 11:22:00,
2013-05-28 04:32:00,48.0,47.0,-100.00,NNW,332,0.0,0.0,97,0.00,,,0.02,0.000000,,2013-05-28 11:32:00,
2013-05-28 04:41:00,48.0,47.0,-100.00,NNW,332,0.0,0.0,97,0.00,,,0.02,0.000000,,2013-05-28 11:41:00,
2013-05-28 04:52:00,47.0,46.0,-100.00,North,1,0.0,1.0,97,0.00,,,0.02,0.000000,,2013-05-28 11:52:00,
2013-05-28 05:11:00,47.0,46.0,-100.00,North,1,0.0,1.0,97,0.00,,,0.02,0.000000,,2013-05-28 12:11:00,
2013-05-28 05:21:00,47.0,46.0,-100.00,North,1,0.0,1.0,97,0.00,,,0.02,0.000000,,2013-05-28 12:21:00,
2013-05-28 05:31:00,47.0,46.0,-100.00,North,1,0.0,1.0,97,0.00,,,0.02,0.000000,,2013-05-28 12:31:00,
2013-05-28 05:42:00,47.0,46.0,-100.00,North,1,0.0,1.0,97,0.00,,,0.02,0.000000,,2013-05-28 12:42:00,
2013-05-28 05:52:00,48.0,47.0,-100.00,NW,321,0.0,2.0,97,0.01,,,0.03,3.000000,,2013-05-28 12:52:00,
2013-05-28 06:11:00,48.0,47.0,-100.00,NW,321,0.0,2.0,97,0.01,,,0.03,3.000000,,2013-05-28 13:11:00,
2013-05-28 06:21:00,48.0,47.0,-100.00,NW,321,0.0,2.0,97,0.01,,,0.03,3.000000,,2013-05-28 13:21:00,
2013-05-28 06:32:00,48.0,47.0,-100.00,NW,321,0.0,2.0,97,0.01,,,0.03,3.000000,,2013-05-28 13:32:00,
2013-05-28 06:42:00,48.0,47.0,-100.00,NW,321,0.0,2.0,97,0.01,,,0.03,3.000000,,2013-05-28 13:42:00,
2013-05-28 07:11:00,49.0,48.0,-100.00,ENE,74,0.0,1.0,96,0.07,,,0.10,34.000000,,2013-05-28 14:11:00,
2013-05-28 07:21:00,49.0,48.0,-100.00,ENE,74,0.0,1.0,96,0.07,,,0.10,34.000000,,2013-05-28 14:21:00,
2013-05-28 07:32:00,49.0,48.0,-100.00,ENE,74,0.0,1.0,96,0.07,,,0.10,34.000000,,2013-05-28 14:32:00,
2013-05-28 07:41:00,49.0,48.0,-100.00,ENE,74,0.0,1.0,96,0.07,,,0.10,34.000000,,2013-05-28 14:41:00,
2013-05-28 07:51:00,49.0,48.0,-100.00,ENE,74,0.0,1.0,96,0.07,,,0.10,34.000000,,2013-05-28 14:51:00,
2013-05-28 07:52:00,51.0,49.0,-100.00,SSE,165,1.0,3.0,93,0.00,,,0.10,103.000000,,2013-05-28 14:52:00,
2013-05-28 08:11:00,51.0,49.0,-100.00,SSE,165,1.0,3.0,93,0.00,,,0.10,103.000000,,2013-05-28 15:11:00,
2013-05-28 08:21:00,51.0,49.0,-100.00,SSE,165,1.0,3.0,93,0.00,,,0.10,103.000000,,2013-05-28 15:21:00,
2013-05-28 08:32:00,51.0,49.0,-100.00,SSE,165,1.0,3.0,93,0.00,,,0.10,103.000000,,2013-05-28 15:32:00,
2013-05-28 08:43:00,51.0,49.0,-100.00,SSE,165,1.0,3.0,93,0.00,,,0.10,103.000000,,2013-05-28 15:43:00,
2013-05-28 08:52:00,51.0,47.0,-100.00,NNE,24,2.0,5.0,85,0.00,,,0.10,131.000000,,2013-05-28 15:52:00,
2013-05-28 09:12:00,51.0,47.0,-100.00,NNE,24,2.0,5.0,85,0.00,,,0.10,131.000000,,2013-05-28 16:12:00,
2013-05-28 09:22:00,51.0,47.0,-100.00,NNE,24,2.0,5.0,85,0.00,,,0.10,131.000000,,2013-05-28 16:22:00,
2013-05-28 09:33:00,51.0,47.0,-100.00,NNE,24,2.0,5.0,85,0.00,,,0.10,131.000000,,2013-05-28 16:33:00,
2013-05-28 09:42:00,51.0,47.0,-100.00,NNE,24,2.0,5.0,85,0.00,,,0.10,131.000000,,2013-05-28 16:42:00,
2013-05-28 10:12:00,51.0,48.0,-100.00,ESE,123,0.0,5.0,91,0.07,,,0.17,154.000000,,2013-05-28 17:12:00,
2013-05-28 10:22:00,51.0,48.0,-100.00,ESE,123,0.0,5.0,91,0.07,,,0.17,154.000000,,2013-05-28 17:22:00,
2013-05-28 10:32:00,51.0,48.0,-100.00,ESE,123,0.0,5.0,91,0.07,,,0.17,154.000000,,2013-05-28 17:32:00,
2013-05-28 10:41:00,51.0,48.0,-100.00,ESE,123,0.0,5.0,91,0.07,,,0.17,154.000000,,2013-05-28 17:41:00,
2013-05-28 10:51:00,51.0,48.0,-100.00,ESE,123,0.0,5.0,91,0.07,,,0.17,154.000000,,2013-05-28 17:51:00,
2013-05-28 10:52:00,53.0,49.0,-100.00,SSE,156,2.0,8.0,86,0.00,,,-99.99,252.000000,,2013-05-28 17:52:00,
2013-05-28 11:11:00,53.0,49.0,-100.00,SSE,156,2.0,8.0,86,0.00,,,-99.99,252.000000,,2013-05-28 18:11:00,
2013-05-28 11:21:00,53.0,49.0,-100.00,SSE,156,2.0,8.0,86,0.00,,,-99.99,252.000000,,2013-05-28 18:21:00,
2013-05-28 11:32:00,53.0,49.0,-100.00,SSE,156,2.0,8.0,86,0.00,,,-99.99,252.000000,,2013-05-28 18:32:00,
2013-05-28 11:42:00,53.0,49.0,-100.00,SSE,156,2.0,8.0,86,0.00,,,-99.99,252.000000,,2013-05-28 18:42:00,
2013-05-28 11:52:00,51.0,47.0,-100.00,SSE,159,1.0,8.0,87,0.00,,,0.17,248.000000,,2013-05-28 18:52:00,
2013-05-28 12:11:00,51.0,47.0,-100.00,SSE,159,1.0,8.0,87,0.00,,,0.17,248.000000,,2013-05-28 19:11:00,
2013-05-28 12:21:00,51.0,47.0,-100.00,SSE,159,1.0,8.0,87,0.00,,,0.17,248.000000,,2013-05-28 19:21:00,
2013-05-28 12:32:00,51.0,47.0,-100.00,SSE,159,1.0,8.0,87,0.00,,,0.17,248.000000,,2013-05-28 19:32:00,
2013-05-28 12:41:00,51.0,47.0,-100.00,SSE,159,1.0,8.0,87,0.00,,,0.17,248.000000,,2013-05-28 19:41:00,
2013-05-28 12:52:00,53.0,48.0,-100.00,SSE,168,1.0,6.0,84,0.01,,,0.18,273.000000,,2013-05-28 19:52:00,
2013-05-28 13:11:00,53.0,48.0,-100.00,SSE,168,1.0,6.0,84,0.01,,,0.18,273.000000,,2013-05-28 20:11:00,
2013-05-28 13:22:00,53.0,48.0,-100.00,SSE,168,1.0,6.0,84,0.01,,,0.18,273.000000,,2013-05-28 20:22:00,
2013-05-28 13:32:00,53.0,48.0,-100.00,SSE,168,1.0,6.0,84,0.01,,,0.18,273.000000,,2013-05-28 20:32:00,
2013-05-28 13:42:00,53.0,48.0,-100.00,SSE,168,1.0,6.0,84,0.01,,,0.18,273.000000,,2013-05-28 20:42:00,
2013-05-28 13:52:00,53.0,49.0,-100.00,NNE,14,1.0,6.0,87,0.07,,,0.25,280.000000,,2013-05-28 20:52:00,
2013-05-28 14:11:00,53.0,49.0,-100.00,NNE,14,1.0,6.0,87,0.07,,,0.25,280.000000,,2013-05-28 21:11:00,
2013-05-28 14:21:00,53.0,49.0,-100.00,NNE,14,1.0,6.0,87,0.07,,,0.25,280.000000,,2013-05-28 21:21:00,
2013-05-28 14:33:00,53.0,49.0,-100.00,NNE,14,1.0,6.0,87,0.07,,,0.25,280.000000,,2013-05-28 21:33:00,
2013-05-28 14:43:00,53.0,49.0,-100.00,NNE,14,1.0,6.0,87,0.07,,,0.25,280.000000,,2013-05-28 21:43:00,
2013-05-28 14:52:00,56.0,49.0,-100.00,ESE,112,1.0,6.0,76,0.00,,,0.25,281.000000,,2013-05-28 21:52:00,
2013-05-28 15:12:00,56.0,49.0,-100.00,ESE,112,1.0,6.0,76,0.00,,,0.25,281.000000,,2013-05-28 22:12:00,
2013-05-28 15:22:00,56.0,49.0,-100.00,ESE,112,1.0,6.0,76,0.00,,,0.25,281.000000,,2013-05-28 22:22:00,
2013-05-28 15:32:00,56.0,49.0,-100.00,ESE,112,1.0,6.0,76,0.00,,,0.25,281.000000,,2013-05-28 22:32:00,
2013-05-28 15:42:00,56.0,49.0,-100.00,ESE,112,1.0,6.0,76,0.00,,,0.25,281.000000,,2013-05-28 22:42:00,
2013-05-28 15:52:00,57.0,48.0,-100.00,NNW,343,1.0,5.0,73,0.00,,,0.25,280.000000,,2013-05-28 22:52:00,
2013-05-28 16:11:00,57.0,48.0,-100.00,NNW,343,1.0,5.0,73,0.00,,,0.25,280.000000,,2013-05-28 23:11:00,
2013-05-28 16:21:00,57.0,48.0,-100.00,NNW,343,1.0,5.0,73,0.00,,,0.25,280.000000,,2013-05-28 23:21:00,
2013-05-28 16:32:00,57.0,48.0,-100.00,NNW,343,1.0,5.0,73,0.00,,,0.25,280.000000,,2013-05-28 23:32:00,
2013-05-28 16:42:00,57.0,48.0,-100.00,NNW,343,1.0,5.0,73,0.00,,,0.25,280.000000,,2013-05-28 23:42:00,
2013-05-28 17:11:00,56.0,46.0,-100.00,SE,127,1.0,5.0,68,0.00,,,0.25,173.000000,,2013-05-29 00:11:00,
2013-05-28 17:21:00,56.0,46.0,-100.00,SE,127,1.0,5.0,68,0.00,,,0.25,173.000000,,2013-05-29 00:21:00,
2013-05-28 17:32:00,56.0,46.0,-100.00,SE,127,1.0,5.0,68,0.00,,,0.25,173.000000,,2013-05-29 00:32:00,
2013-05-28 17:41:00,56.0,46.0,-100.00,SE,127,1.0,5.0,68,0.00,,,0.25,173.000000,,2013-05-29 00:41:00,
2013-05-28 17:51:00,56.0,46.0,-100.00,SE,127,1.0,5.0,68,0.00,,,0.25,173.000000,,2013-05-29 00:51:00,
2013-05-28 17:52:00,56.0,46.0,-100.00,SSE,168,1.0,5.0,69,0.00,,,0.25,153.000000,,2013-05-29 00:52:00,
2013-05-28 18:11:00,56.0,46.0,-100.00,SSE,168,1.0,5.0,69,0.00,,,0.25,153.000000,,2013-05-29 01:11:00,
2013-05-28 18:22:00,56.0,46.0,-100.00,SSE,168,1.0,5.0,69,0.00,,,0.25,153.000000,,2013-05-29 01:22:00,
2013-05-28 18:32:00,56.0,46.0,-100.00,SSE,168,1.0,5.0,69,0.00,,,0.25,153.000000,,2013-05-29 01:32:00,
2013-05-28 18:41:00,56.0,46.0,-100.00,SSE,168,1.0,5.0,69,0.00,,,0.25,153.000000,,2013-05-29 01:41:00,
2013-05-28 19:12:00,54.0,49.0,-100.00,WSW,243,0.0,2.0,82,0.00,,,0.25,84.000000,,2013-05-29 02:12:00,
2013-05-28 19:21:00,54.0,49.0,-100.00,WSW,243,0.0,2.0,82,0.00,,,0.25,84.000000,,2013-05-29 02:21:00,
2013-05-28 19:32:00,54.0,49.0,-100.00,WSW,243,0.0,2.0,82,0.00,,,0.25,84.000000,,2013-05-29 02:32:00,
2013-05-28 19:41:00,54.0,49.0,-100.00,WSW,243,0.0,2.0,82,0.00,,,0.25,84.000000,,2013-05-29 02:41:00,
2013-05-28 19:51:00,54.0,49.0,-100.00,WSW,243,0.0,2.0,82,0.00,,,0.25,84.000000,,2013-05-29 02:51:00,
2013-05-28 19:52:00,52.0,48.0,-100.00,WNW,300,0.0,0.0,87,0.00,,,0.25,34.000000,,2013-05-29 02:52:00,
2013-05-28 20:12:00,52.0,48.0,-100.00,WNW,300,0.0,0.0,87,0.00,,,0.25,34.000000,,2013-05-29 03:12:00,
2013-05-28 20:21:00,52.0,48.0,-100.00,WNW,300,0.0,0.0,87,0.00,,,0.25,34.000000,,2013-05-29 03:21:00,
2013-05-28 20:33:00,52.0,48.0,-100.00,WNW,300,0.0,0.0,87,0.00,,,0.25,34.000000,,2013-05-29 03:33:00,
2013-05-28 20:43:00,52.0,48.0,-100.00,WNW,300,0.0,0.0,87,0.00,,,0.25,34.000000,,2013-05-29 03:43:00,
2013-05-28 20:52:00,50.0,48.0,-100.00,North,352,0.0,2.0,92,0.00,,,0.25,4.000000,,2013-05-29 03:52:00,
2013-05-28 21:12:00,50.0,48.0,-100.00,North,352,0.0,2.0,92,0.00,,,0.25,4.000000,,2013-05-29 04:12:00,
2013-05-28 21:23:00,50.0,48.0,-100.00,North,352,0.0,2.0,92,0.00,,,0.25,4.000000,,2013-05-29 04:23:00,
2013-05-28 21:33:00,50.0,48.0,-100.00,North,352,0.0,2.0,92,0.00,,,0.25,4.000000,,2013-05-29 04:33:00,
2013-05-28 21:42:00,50.0,48.0,-100.00,North,352,0.0,2.0,92,0.00,,,0.25,4.000000,,2013-05-29 04:42:00,
2013-05-28 21:52:00,49.0,48.0,-100.00,North,6,0.0,1.0,95,0.00,,,0.25,0.000000,,2013-05-29 04:52:00,
2013-05-28 22:12:00,49.0,48.0,-100.00,North,6,0.0,1.0,95,0.00,,,0.25,0.000000,,2013-05-29 05:12:00,
2013-05-28 22:22:00,49.0,48.0,-100.00,North,6,0.0,1.0,95,0.00,,,0.25,0.000000,,2013-05-29 05:22:00,
2013-05-28 22:32:00,49.0,48.0,-100.00,North,6,0.0,1.0,95,0.00,,,0.25,0.000000,,2013-05-29 05:32:00,
2013-05-28 22:42:00,49.0,48.0,-100.00,North,6,0.0,1.0,95,0.00,,,0.25,0.000000,,2013-05-29 05:42:00,
2013-05-28 23:11:00,46.0,45.0,-100.00,NNE,24,1.0,3.0,96,0.00,,,0.25,0.000000,,2013-05-29 06:11:00,
2013-05-28 23:21:00,46.0,45.0,-100.00,NNE,24,1.0,3.0,96,0.00,,,0.25,0.000000,,2013-05-29 06:21:00,
2013-05-28 23:31:00,46.0,45.0,-100.00,NNE,24,1.0,3.0,96,0.00,,,0.25,0.000000,,2013-05-29 06:31:00,
2013-05-28 23:41:00,46.0,45.0,-100.00,NNE,24,1.0,3.0,96,0.00,,,0.25,0.000000,,2013-05-29 06:41:00,
2013-05-28 23:51:00,46.0,45.0,-100.00,NNE,24,1.0,3.0,96,0.00,,,0.25,0.000000,,2013-05-29 06:51:00,
2013-05-28 23:52:00,46.0,45.0,-100.00,NNW,328,0.0,2.0,95,0.00,,,0.23,0.000000,,2013-05-29 06:52:00,